createdAt,value
2022-09-17T00:02:09.076Z,8.60
2022-09-17T00:04:37.186Z,8.70
2022-09-17T00:07:05.297Z,8.70
2022-09-17T00:09:33.135Z,8.70
2022-09-17T00:12:02.189Z,8.70
2022-09-17T00:14:30.107Z,8.80
2022-09-17T00:17:01.792Z,8.80
2022-09-17T00:19:31.684Z,8.80
2022-09-17T00:21:59.619Z,8.90
2022-09-17T00:24:27.454Z,8.90
2022-09-17T00:26:55.341Z,8.90
2022-09-17T00:29:23.276Z,8.90
2022-09-17T00:31:51.317Z,8.90
2022-09-17T00:34:19.295Z,9.00
2022-09-17T00:36:48.560Z,9.00
2022-09-17T00:39:16.561Z,9.10
2022-09-17T00:41:45.187Z,9.10
2022-09-17T00:44:53.018Z,9.10
2022-09-17T00:47:25.375Z,9.10
2022-09-17T00:49:57.504Z,9.10
2022-09-17T00:52:34.065Z,9.10
2022-09-17T00:55:07.736Z,9.20
2022-09-17T00:57:36.441Z,9.20
2022-09-17T01:00:06.848Z,9.20
2022-09-17T01:02:35.593Z,9.20
2022-09-17T01:05:03.558Z,9.30
2022-09-17T01:07:51.951Z,9.20
2022-09-17T01:10:36.693Z,9.20
2022-09-17T01:13:17.575Z,9.20
2022-09-17T01:15:52.359Z,9.30
2022-09-17T01:18:42.819Z,9.20
2022-09-17T01:21:31.607Z,9.30
2022-09-17T01:24:34.881Z,9.30
2022-09-17T01:27:35.747Z,9.30
2022-09-17T01:30:22.619Z,9.30
2022-09-17T01:32:59.303Z,9.30
2022-09-17T01:35:35.369Z,9.30
2022-09-17T01:38:11.741Z,9.30
2022-09-17T01:40:46.457Z,9.30
2022-09-17T01:43:22.899Z,9.30
2022-09-17T01:45:52.919Z,9.30
2022-09-17T01:48:25.924Z,9.30
2022-09-17T01:50:58.427Z,9.30
2022-09-17T01:53:32.452Z,9.30
2022-09-17T01:56:04.631Z,9.30
2022-09-17T01:58:36.477Z,9.30
2022-09-17T02:01:08.333Z,9.30
2022-09-17T02:03:49.346Z,9.30
2022-09-17T02:06:21.153Z,9.30
2022-09-17T02:08:55.099Z,9.30
2022-09-17T02:11:23.752Z,9.40
2022-09-17T02:13:55.755Z,9.40
2022-09-17T02:16:27.496Z,9.40
2022-09-17T02:19:00.821Z,9.40
2022-09-17T02:21:36.795Z,9.30
2022-09-17T02:24:11.048Z,9.30
2022-09-17T02:26:45.632Z,9.30
2022-09-17T02:29:20.900Z,9.30
2022-09-17T02:31:49.083Z,9.20
2022-09-17T02:34:18.495Z,9.10
2022-09-17T02:36:46.827Z,9.10
2022-09-17T02:39:14.683Z,9.10
2022-09-17T02:41:50.197Z,9.10
2022-09-17T02:44:27.916Z,9.10
2022-09-17T02:47:25.193Z,9.00
2022-09-17T02:50:14.749Z,9.00
2022-09-17T02:52:54.992Z,9.00
2022-09-17T02:55:31.941Z,9.00
2022-09-17T02:58:07.193Z,9.00
2022-09-17T03:00:36.041Z,9.00
2022-09-17T03:03:09.760Z,9.00
2022-09-17T03:05:42.122Z,9.00
2022-09-17T03:08:14.925Z,8.90
2022-09-17T03:10:43.168Z,8.90
2022-09-17T03:13:11.105Z,8.90
2022-09-17T03:15:39.031Z,8.90
2022-09-17T03:18:06.982Z,8.90
2022-09-17T03:20:34.805Z,8.90
2022-09-17T03:23:04.014Z,8.90
2022-09-17T03:25:31.890Z,8.90
2022-09-17T03:27:59.778Z,8.90
2022-09-17T03:30:27.676Z,8.90
2022-09-17T03:32:55.557Z,8.90
2022-09-17T03:35:23.457Z,8.80
2022-09-17T03:37:51.349Z,8.80
2022-09-17T03:40:20.810Z,8.80
2022-09-17T03:42:48.765Z,8.80
2022-09-17T03:45:16.811Z,8.80
2022-09-17T03:47:44.843Z,8.80
2022-09-17T03:50:12.669Z,8.80
2022-09-17T03:52:40.524Z,8.80
2022-09-17T03:55:09.119Z,8.80
2022-09-17T03:57:38.501Z,8.80
2022-09-17T04:00:08.376Z,8.80
2022-09-17T04:02:43.062Z,8.80
2022-09-17T04:05:11.267Z,8.80
2022-09-17T04:07:40.849Z,8.80
2022-09-17T04:10:09.626Z,8.80
2022-09-17T04:12:39.185Z,8.80
2022-09-17T04:15:08.257Z,8.80
2022-09-17T04:17:36.140Z,8.80
2022-09-17T04:20:05.628Z,8.80
2022-09-17T04:22:33.803Z,8.80
2022-09-17T04:25:01.688Z,8.80
2022-09-17T04:27:29.537Z,8.80
2022-09-17T04:29:58.687Z,8.70
2022-09-17T04:32:26.566Z,8.70
2022-09-17T04:34:54.423Z,8.70
2022-09-17T04:37:23.648Z,8.70
2022-09-17T04:39:51.565Z,8.70
2022-09-17T04:42:19.869Z,8.70
2022-09-17T04:44:47.739Z,8.70
2022-09-17T04:47:16.961Z,8.70
2022-09-17T04:49:44.831Z,8.70
2022-09-17T04:52:12.748Z,8.70
2022-09-17T04:54:40.592Z,8.70
2022-09-17T04:57:08.532Z,8.70
2022-09-17T04:59:36.465Z,8.70
2022-09-17T05:02:04.545Z,8.70
2022-09-17T05:04:34.857Z,8.70
2022-09-17T05:07:02.818Z,8.70
2022-09-17T05:09:31.748Z,8.70
2022-09-17T05:11:59.788Z,8.70
2022-09-17T05:14:27.805Z,8.70
2022-09-17T05:16:55.728Z,8.70
2022-09-17T05:19:24.799Z,8.70
2022-09-17T05:21:54.134Z,8.70
2022-09-17T05:24:22.051Z,8.70
2022-09-17T05:26:50.002Z,8.80
2022-09-17T05:29:18.045Z,8.70
2022-09-17T05:31:46.102Z,8.70
2022-09-17T05:34:14.110Z,8.70
2022-09-17T05:36:42.050Z,8.70
2022-09-17T05:39:11.303Z,8.70
2022-09-17T05:41:39.215Z,8.70
2022-09-17T05:44:07.339Z,8.60
2022-09-17T05:46:37.870Z,8.60
2022-09-17T05:49:05.944Z,8.60
2022-09-17T05:51:33.820Z,8.60
2022-09-17T05:54:01.756Z,8.60
2022-09-17T05:56:31.086Z,8.60
2022-09-17T05:58:59.115Z,8.60
2022-09-17T06:01:27.720Z,8.60
2022-09-17T06:03:55.584Z,8.60
2022-09-17T06:06:23.491Z,8.60
2022-09-17T06:08:51.519Z,8.70
2022-09-17T06:11:19.372Z,8.70
2022-09-17T06:13:49.941Z,8.70
2022-09-17T06:16:17.917Z,8.80
2022-09-17T06:18:45.791Z,8.80
2022-09-17T06:21:13.673Z,8.80
2022-09-17T06:23:43.443Z,8.90
2022-09-17T06:26:12.645Z,8.90
2022-09-17T06:28:41.941Z,8.90
2022-09-17T06:31:12.942Z,8.90
2022-09-17T06:33:40.934Z,8.90
2022-09-17T06:36:14.589Z,8.90
2022-09-17T06:38:43.174Z,8.90
2022-09-17T06:41:12.533Z,8.90
2022-09-17T06:43:40.557Z,8.90
2022-09-17T06:46:12.537Z,8.90
2022-09-17T06:48:40.664Z,8.90
2022-09-17T06:51:10.069Z,8.90
2022-09-17T06:53:38.941Z,9.00
2022-09-17T06:56:08.563Z,9.00
2022-09-17T06:58:37.948Z,9.00
2022-09-17T07:01:06.806Z,9.00
2022-09-17T07:03:36.231Z,9.00
2022-09-17T07:06:04.881Z,9.00
2022-09-17T07:08:34.910Z,9.00
2022-09-17T07:11:03.123Z,9.10
2022-09-17T07:13:30.969Z,9.10
2022-09-17T07:16:01.046Z,9.10
2022-09-17T07:18:29.296Z,9.20
2022-09-17T07:21:00.298Z,9.30
2022-09-17T07:23:30.639Z,9.30
2022-09-17T07:26:00.217Z,9.30
2022-09-17T07:28:29.693Z,9.30
2022-09-17T07:30:58.295Z,9.40
2022-09-17T07:33:28.271Z,9.40
2022-09-17T07:35:58.599Z,9.40
2022-09-17T07:38:27.262Z,9.50
2022-09-17T07:41:00.308Z,9.50
2022-09-17T07:43:32.096Z,9.50
2022-09-17T07:46:01.835Z,9.50
2022-09-17T07:48:30.571Z,9.50
2022-09-17T07:50:59.964Z,9.50
2022-09-17T07:53:28.315Z,9.50
2022-09-17T07:55:57.870Z,9.50
2022-09-17T07:58:30.064Z,9.50
2022-09-17T08:01:01.578Z,9.60
2022-09-17T08:03:29.684Z,9.60
2022-09-17T08:06:04.887Z,9.60
2022-09-17T08:08:33.830Z,9.60
2022-09-17T08:11:03.029Z,9.60
2022-09-17T08:13:31.214Z,9.70
2022-09-17T08:16:01.029Z,9.70
2022-09-17T08:18:30.135Z,9.70
2022-09-17T08:20:59.180Z,9.80
2022-09-17T08:23:29.445Z,9.90
2022-09-17T08:25:59.019Z,9.90
2022-09-17T08:28:29.004Z,9.90
2022-09-17T08:31:01.840Z,9.90
2022-09-17T08:33:32.392Z,10.00
2022-09-17T08:36:00.538Z,10.00
2022-09-17T08:38:37.213Z,10.00
2022-09-17T08:41:20.063Z,10.10
2022-09-17T08:43:53.457Z,10.20
2022-09-17T08:46:22.008Z,10.20
2022-09-17T08:48:54.920Z,10.20
2022-09-17T08:51:34.853Z,10.20
2022-09-17T08:54:11.135Z,10.30
2022-09-17T08:56:41.193Z,10.40
2022-09-17T08:59:21.837Z,10.50
2022-09-17T09:01:59.874Z,10.70
2022-09-17T09:04:53.809Z,10.80
2022-09-17T09:07:27.115Z,10.90
2022-09-17T09:10:09.442Z,11.10
2022-09-17T09:12:39.028Z,11.30
2022-09-17T09:15:16.506Z,11.50
2022-09-17T09:17:47.918Z,11.60
2022-09-17T09:20:18.919Z,11.70
2022-09-17T09:22:49.614Z,11.70
2022-09-17T09:25:23.484Z,11.60
2022-09-17T09:28:09.297Z,11.70
2022-09-17T09:30:49.488Z,11.90
2022-09-17T09:33:38.561Z,12.30
2022-09-17T09:36:11.618Z,12.60
2022-09-17T09:38:50.936Z,12.90
2022-09-17T09:41:26.452Z,13.00
2022-09-17T09:44:04.495Z,13.00
2022-09-17T09:46:48.092Z,13.00
2022-09-17T09:49:27.461Z,13.00
2022-09-17T09:52:13.130Z,13.00
2022-09-17T09:54:54.110Z,12.90
2022-09-17T09:57:36.696Z,12.90
2022-09-17T10:00:24.591Z,12.80
2022-09-17T10:02:56.327Z,12.80
2022-09-17T10:05:24.914Z,12.60
2022-09-17T10:07:52.829Z,12.50
2022-09-17T10:10:20.788Z,12.50
2022-09-17T10:12:50.005Z,12.60
2022-09-17T10:15:29.681Z,12.60
2022-09-17T10:18:16.769Z,12.70
2022-09-17T10:20:59.426Z,12.70
2022-09-17T10:23:29.993Z,12.70
2022-09-17T10:25:58.662Z,13.00
2022-09-17T10:28:45.872Z,13.20
2022-09-17T10:31:13.825Z,13.30
2022-09-17T10:33:53.129Z,13.40
2022-09-17T10:36:38.166Z,13.40
2022-09-17T10:39:32.481Z,13.40
2022-09-17T10:42:01.856Z,13.40
2022-09-17T10:44:34.391Z,13.10
2022-09-17T10:47:08.993Z,12.90
2022-09-17T10:49:40.851Z,12.50
2022-09-17T10:52:15.640Z,12.40
2022-09-17T10:55:16.208Z,12.20
2022-09-17T10:58:05.324Z,12.20
2022-09-17T11:00:45.891Z,12.20
2022-09-17T11:03:51.493Z,12.10
2022-09-17T11:07:10.243Z,12.10
2022-09-17T11:09:51.987Z,12.10
2022-09-17T11:12:41.924Z,11.90
2022-09-17T11:15:24.169Z,11.80
2022-09-17T11:18:14.229Z,11.70
2022-09-17T11:20:59.780Z,11.80
2022-09-17T11:23:49.997Z,11.90
2022-09-17T11:26:31.309Z,12.10
2022-09-17T11:29:15.309Z,12.30
2022-09-17T11:31:51.515Z,12.40
2022-09-17T11:34:35.031Z,12.50
2022-09-17T11:37:10.442Z,12.50
2022-09-17T11:39:45.307Z,12.50
2022-09-17T11:42:17.593Z,12.50
2022-09-17T11:44:50.117Z,12.60
2022-09-17T11:47:22.801Z,12.60
2022-09-17T11:49:55.071Z,12.80
2022-09-17T11:52:27.593Z,12.60
2022-09-17T11:54:59.389Z,12.10
2022-09-17T11:57:32.744Z,11.60
2022-09-17T12:00:07.643Z,11.20
2022-09-17T12:02:51.305Z,10.90
2022-09-17T12:05:21.870Z,10.60
2022-09-17T12:07:56.017Z,10.50
2022-09-17T12:10:36.446Z,10.40
2022-09-17T12:13:24.208Z,10.30
2022-09-17T12:16:17.573Z,10.40
2022-09-17T12:18:52.637Z,10.70
2022-09-17T12:21:25.765Z,11.10
2022-09-17T12:23:59.351Z,11.60
2022-09-17T12:26:44.433Z,12.10
2022-09-17T12:29:27.060Z,12.60
2022-09-17T12:32:04.535Z,12.90
2022-09-17T12:34:45.774Z,13.10
2022-09-17T12:37:18.857Z,13.10
2022-09-17T12:40:04.645Z,13.40
2022-09-17T12:42:56.802Z,13.70
2022-09-17T12:45:36.094Z,13.90
2022-09-17T12:48:35.901Z,14.00
2022-09-17T12:51:18.174Z,14.00
2022-09-17T12:53:58.278Z,14.00
2022-09-17T12:56:40.440Z,13.80
2022-09-17T12:59:14.478Z,13.60
2022-09-17T13:01:49.478Z,13.50
2022-09-17T13:05:00.484Z,13.60
2022-09-17T13:07:53.479Z,13.80
2022-09-17T13:10:53.975Z,14.10
2022-09-17T13:13:35.539Z,14.30
2022-09-17T13:16:15.538Z,14.50
2022-09-17T13:19:14.977Z,14.50
2022-09-17T13:21:50.119Z,14.50
2022-09-17T13:24:20.074Z,14.50
2022-09-17T13:26:48.290Z,14.60
2022-09-17T13:29:49.905Z,14.70
2022-09-17T13:32:43.702Z,14.80
2022-09-17T13:35:48.889Z,14.80
2022-09-17T13:38:21.670Z,14.80
2022-09-17T13:40:52.141Z,14.60
2022-09-17T13:43:26.358Z,14.50
2022-09-17T13:46:12.858Z,14.30
2022-09-17T13:48:50.347Z,14.10
2022-09-17T13:51:45.053Z,14.20
2022-09-17T13:54:15.938Z,14.20
2022-09-17T13:56:46.837Z,14.30
2022-09-17T13:59:19.029Z,14.40
2022-09-17T14:02:36.211Z,14.70
2022-09-17T14:05:38.045Z,14.90
2022-09-17T14:08:27.781Z,15.20
2022-09-17T14:10:59.112Z,15.30
2022-09-17T14:13:55.185Z,15.30
2022-09-17T14:16:35.502Z,15.30
2022-09-17T14:19:22.189Z,15.20
2022-09-17T14:22:11.319Z,14.90
2022-09-17T14:24:46.610Z,14.70
2022-09-17T14:27:22.547Z,14.40
2022-09-17T14:30:12.343Z,14.10
2022-09-17T14:32:49.181Z,13.80
2022-09-17T14:35:25.731Z,13.40
2022-09-17T14:37:58.895Z,13.10
2022-09-17T14:40:28.299Z,12.80
2022-09-17T14:42:59.819Z,12.50
2022-09-17T14:45:32.283Z,12.30
2022-09-17T14:48:20.590Z,12.20
2022-09-17T14:50:53.598Z,12.10
2022-09-17T14:53:23.790Z,12.20
2022-09-17T14:55:52.375Z,12.40
2022-09-17T14:58:35.733Z,12.60
2022-09-17T15:01:04.507Z,12.90
2022-09-17T15:03:34.677Z,13.00
2022-09-17T15:06:02.707Z,13.10
2022-09-17T15:08:30.786Z,13.20
2022-09-17T15:11:01.314Z,13.20
2022-09-17T15:13:32.967Z,13.10
2022-09-17T15:16:03.637Z,13.20
2022-09-17T15:18:41.357Z,13.20
2022-09-17T15:21:24.287Z,13.10
2022-09-17T15:23:55.064Z,13.10
2022-09-17T15:26:27.130Z,13.00
2022-09-17T15:28:58.575Z,13.00
2022-09-17T15:31:30.461Z,12.90
2022-09-17T15:34:00.796Z,12.90
2022-09-17T15:36:31.600Z,12.80
2022-09-17T15:38:59.920Z,12.80
2022-09-17T15:41:33.530Z,12.70
2022-09-17T15:44:30.419Z,12.60
2022-09-17T15:47:32.575Z,12.50
2022-09-17T15:50:15.641Z,12.40
2022-09-17T15:52:43.567Z,12.40
2022-09-17T15:55:32.451Z,12.20
2022-09-17T15:58:01.175Z,12.10
2022-09-17T16:00:31.574Z,12.00
2022-09-17T16:03:11.119Z,11.90
2022-09-17T16:05:46.597Z,11.90
2022-09-17T16:08:25.310Z,11.80
2022-09-17T16:10:53.457Z,11.80
2022-09-17T16:13:25.135Z,11.70
2022-09-17T16:15:57.560Z,11.70
2022-09-17T16:18:26.077Z,11.60
2022-09-17T16:20:54.010Z,11.60
2022-09-17T16:23:21.906Z,11.50
2022-09-17T16:25:50.102Z,11.30
2022-09-17T16:28:20.157Z,11.30
2022-09-17T16:30:49.852Z,11.20
2022-09-17T16:33:19.983Z,11.10
2022-09-17T16:35:47.961Z,11.00
2022-09-17T16:38:15.933Z,10.90
2022-09-17T16:40:46.578Z,10.90
2022-09-17T16:43:14.835Z,10.90
2022-09-17T16:45:42.895Z,10.80
2022-09-17T16:48:11.183Z,10.70
2022-09-17T16:50:42.988Z,10.70
2022-09-17T16:53:10.933Z,10.70
2022-09-17T16:55:51.663Z,10.60
2022-09-17T16:58:20.273Z,10.60
2022-09-17T17:00:48.357Z,10.60
2022-09-17T17:03:16.806Z,10.40
2022-09-17T17:05:46.381Z,10.20
2022-09-17T17:08:14.669Z,10.10
2022-09-17T17:10:42.633Z,10.00
2022-09-17T17:13:10.486Z,9.90
2022-09-17T17:15:41.559Z,9.80
2022-09-17T17:18:09.501Z,9.70
2022-09-17T17:20:37.518Z,9.70
2022-09-17T17:23:06.751Z,9.70
2022-09-17T17:25:35.042Z,9.70
2022-09-17T17:28:03.150Z,9.70
2022-09-17T17:30:34.849Z,9.60
2022-09-17T17:33:03.954Z,9.60
2022-09-17T17:35:31.934Z,9.50
2022-09-17T17:37:59.903Z,9.50
2022-09-17T17:40:30.355Z,9.50
2022-09-17T17:42:58.248Z,9.40
2022-09-17T17:45:28.184Z,9.40
2022-09-17T17:47:56.108Z,9.40
2022-09-17T17:50:24.355Z,9.30
2022-09-17T17:52:55.243Z,9.30
2022-09-17T17:55:23.201Z,9.30
2022-09-17T17:58:01.095Z,9.30
2022-09-17T18:00:31.479Z,9.30
2022-09-17T18:02:59.492Z,9.30
2022-09-17T18:05:27.654Z,9.20
2022-09-17T18:07:55.782Z,9.30
2022-09-17T18:10:24.191Z,9.30
2022-09-17T18:12:52.050Z,9.30
2022-09-17T18:15:21.425Z,9.30
2022-09-17T18:17:50.919Z,9.30
2022-09-17T18:20:19.312Z,9.30
2022-09-17T18:22:47.170Z,9.30
2022-09-17T18:25:15.284Z,9.30
2022-09-17T18:27:43.147Z,9.30
2022-09-17T18:30:14.509Z,9.30
2022-09-17T18:32:48.689Z,9.30
2022-09-17T18:35:19.933Z,9.30
2022-09-17T18:37:48.071Z,9.30
2022-09-17T18:40:16.260Z,9.20
2022-09-17T18:42:44.163Z,9.20
2022-09-17T18:45:13.148Z,9.20
2022-09-17T18:47:41.041Z,9.20
2022-09-17T18:50:12.375Z,9.10
2022-09-17T18:52:40.263Z,9.10
2022-09-17T18:55:09.190Z,9.10
2022-09-17T18:57:42.406Z,9.10
2022-09-17T19:00:11.745Z,9.10
2022-09-17T19:02:39.837Z,9.10
2022-09-17T19:05:09.814Z,9.10
2022-09-17T19:07:37.695Z,9.10
2022-09-17T19:10:06.233Z,9.10
2022-09-17T19:12:34.090Z,9.10
2022-09-17T19:15:02.072Z,9.10
2022-09-17T19:17:30.026Z,9.10
2022-09-17T19:19:58.052Z,9.10
2022-09-17T19:22:27.318Z,9.00
2022-09-17T19:24:55.227Z,9.00
2022-09-17T19:27:23.152Z,9.00
2022-09-17T19:29:51.091Z,9.00
2022-09-17T19:32:19.061Z,8.90
2022-09-17T19:34:47.015Z,8.90
2022-09-17T19:37:14.937Z,8.90
2022-09-17T19:39:44.272Z,8.90
2022-09-17T19:42:12.204Z,8.80
2022-09-17T19:44:40.137Z,8.90
2022-09-17T19:47:08.020Z,8.80
2022-09-17T19:49:37.119Z,8.80
2022-09-17T19:52:05.068Z,8.80
2022-09-17T19:54:33.068Z,8.80
2022-09-17T19:57:02.341Z,8.90
2022-09-17T19:59:30.269Z,8.90
2022-09-17T20:01:58.342Z,8.90
2022-09-17T20:04:26.396Z,8.90
2022-09-17T20:06:54.349Z,8.90
2022-09-17T20:09:22.273Z,8.90
2022-09-17T20:11:50.165Z,8.90
2022-09-17T20:14:19.702Z,8.80
2022-09-17T20:16:47.651Z,8.80
2022-09-17T20:19:17.718Z,8.80
2022-09-17T20:21:46.128Z,8.80
2022-09-17T20:24:15.187Z,8.80
2022-09-17T20:26:43.155Z,8.80
2022-09-17T20:29:11.323Z,8.80
2022-09-17T20:31:40.792Z,8.80
2022-09-17T20:34:08.816Z,8.80
2022-09-17T20:36:37.834Z,8.80
2022-09-17T20:39:12.253Z,8.80
2022-09-17T20:41:42.254Z,8.70
2022-09-17T20:44:10.184Z,8.70
2022-09-17T20:46:38.166Z,8.70
2022-09-17T20:49:07.602Z,8.70
2022-09-17T20:51:35.669Z,8.60
2022-09-17T20:54:04.192Z,8.60
2022-09-17T20:56:34.122Z,8.60
2022-09-17T20:59:08.699Z,8.60
2022-09-17T21:01:37.803Z,8.60
2022-09-17T21:04:08.873Z,8.50
2022-09-17T21:06:38.486Z,8.50
2022-09-17T21:09:07.312Z,8.50
2022-09-17T21:11:35.491Z,8.60
2022-09-17T21:14:03.784Z,8.50
2022-09-17T21:16:32.309Z,8.60
2022-09-17T21:19:01.959Z,8.60
2022-09-17T21:21:34.307Z,8.60
2022-09-17T21:24:02.984Z,8.60
2022-09-17T21:26:31.218Z,8.60
2022-09-17T21:28:59.498Z,8.60
2022-09-17T21:31:32.297Z,8.50
2022-09-17T21:34:02.708Z,8.50
2022-09-17T21:36:34.170Z,8.40
2022-09-17T21:39:04.070Z,8.40
2022-09-17T21:41:32.333Z,8.40
2022-09-17T21:44:00.604Z,8.40
2022-09-17T21:46:30.082Z,8.40
2022-09-17T21:49:02.078Z,8.40
2022-09-17T21:51:33.879Z,8.40
2022-09-17T21:54:03.225Z,8.40
2022-09-17T21:56:32.255Z,8.40
2022-09-17T21:59:01.855Z,8.40
2022-09-17T22:01:32.611Z,8.30
2022-09-17T22:04:02.016Z,8.30
2022-09-17T22:06:32.742Z,8.40
2022-09-17T22:09:02.462Z,8.40
2022-09-17T22:11:32.036Z,8.30
2022-09-17T22:14:04.808Z,8.30
2022-09-17T22:16:35.946Z,8.30
2022-09-17T22:19:05.465Z,8.40
2022-09-17T22:21:36.860Z,8.30
2022-09-17T22:24:06.449Z,8.30
2022-09-17T22:26:36.139Z,8.30
2022-09-17T22:29:06.030Z,8.20
2022-09-17T22:31:34.582Z,8.20
2022-09-17T22:34:04.019Z,8.20
2022-09-17T22:36:31.934Z,8.10
2022-09-17T22:39:01.290Z,8.20
2022-09-17T22:41:30.855Z,8.10
2022-09-17T22:44:00.385Z,8.00
2022-09-17T22:46:30.145Z,8.10
2022-09-17T22:48:59.028Z,8.00
2022-09-17T22:51:28.929Z,8.00
2022-09-17T22:54:01.248Z,7.90
2022-09-17T22:56:30.311Z,7.90
2022-09-17T22:58:59.029Z,7.90
2022-09-17T23:01:31.202Z,7.80
2022-09-17T23:04:00.405Z,7.80
2022-09-17T23:06:30.342Z,7.80
2022-09-17T23:08:58.821Z,7.80
2022-09-17T23:11:30.595Z,7.80
2022-09-17T23:14:02.028Z,7.70
2022-09-17T23:16:31.736Z,7.70
2022-09-17T23:18:59.774Z,7.80
2022-09-17T23:21:27.705Z,7.70
2022-09-17T23:23:58.327Z,7.70
2022-09-17T23:26:28.423Z,7.70
2022-09-17T23:28:59.051Z,7.70
2022-09-17T23:31:30.716Z,7.70
2022-09-17T23:33:59.889Z,7.70
2022-09-17T23:36:30.581Z,7.80
2022-09-17T23:38:59.915Z,7.70
2022-09-17T23:41:32.277Z,7.70
2022-09-17T23:44:03.802Z,7.70
2022-09-17T23:46:33.750Z,7.70
2022-09-17T23:49:02.087Z,7.70
2022-09-17T23:51:31.602Z,7.70
2022-09-17T23:54:00.064Z,7.60
2022-09-17T23:56:29.741Z,7.60
2022-09-17T23:59:00.217Z,7.60
